Time;durP1;ratioP1;P1;durP2;ratioP2;P2;SDS_P1;SDS_P2;PMS_P1;PMS_P2;Temp;Humidity;BMP_temperature;BMP_pressure;BME280_temperature;BME280_humidity;BME280_pressure;Samples;Min_cycle;Max_cycle;Signal;HPM_P1;HPM_P2
2023/02/10 00:00:04;;;;;;;4.40;3.70;;;-2.30;99.90;;;;;;5033510;28;20250;-84
2023/02/10 00:02:30;;;;;;;8.20;5.37;;;-2.30;99.90;;;;;;5043315;28;20202;-84
2023/02/10 00:04:56;;;;;;;12.67;5.90;;;-1.80;99.90;;;;;;5053054;28;20604;-84
2023/02/10 00:07:21;;;;;;;4.60;4.00;;;-1.80;99.90;;;;;;5054284;28;20178;-84
2023/02/10 00:09:48;;;;;;;13.37;5.27;;;-2.00;99.90;;;;;;5054107;28;20187;-84
2023/02/10 00:12:15;;;;;;;7.40;4.10;;;-2.30;99.90;;;;;;5053251;28;20178;-85
2023/02/10 00:14:41;;;;;;;9.17;3.40;;;-1.00;99.90;;;;;;5039696;28;20196;-84
2023/02/10 00:17:06;;;;;;;13.20;3.83;;;-2.30;99.90;;;;;;5052289;28;20175;-84
2023/02/10 00:19:33;;;;;;;11.00;5.33;;;-1.90;99.90;;;;;;5053160;28;20211;-84
2023/02/10 00:22:00;;;;;;;11.23;5.60;;;-2.30;99.90;;;;;;5019861;28;20188;-84
2023/02/10 00:24:25;;;;;;;10.60;5.90;;;-1.70;99.90;;;;;;5052810;28;20228;-84
2023/02/10 00:26:51;;;;;;;6.70;6.03;;;-2.30;99.90;;;;;;5035114;28;20691;-84
2023/02/10 00:29:17;;;;;;;4.30;3.33;;;-2.40;99.90;;;;;;5027325;28;20188;-84
2023/02/10 00:31:43;;;;;;;5.37;4.30;;;-2.40;99.90;;;;;;5036267;28;20193;-84
2023/02/10 00:34:14;;;;;;;8.03;3.60;;;-2.40;99.90;;;;;;5036000;28;20651;-84
2023/02/10 00:36:40;;;;;;;7.90;4.50;;;-2.50;99.90;;;;;;5054113;28;20177;-84
2023/02/10 00:39:06;;;;;;;10.30;5.10;;;-2.50;99.90;;;;;;5052209;28;20216;-84
2023/02/10 00:41:32;;;;;;;7.87;4.50;;;-2.50;99.90;;;;;;5046337;28;20217;-84
2023/02/10 00:43:57;;;;;;;8.20;4.63;;;-2.30;99.90;;;;;;5036086;28;20219;-84
2023/02/10 00:46:23;;;;;;;5.90;4.53;;;-2.60;99.90;;;;;;4999750;28;20695;-84
2023/02/10 00:48:50;;;;;;;14.03;5.40;;;-2.40;99.90;;;;;;5032337;28;20191;-85
2023/02/10 00:51:16;;;;;;;7.70;4.27;;;-2.20;99.90;;;;;;5032547;28;20180;-83
2023/02/10 00:53:43;;;;;;;9.00;5.13;;;-2.60;99.90;;;;;;5016044;28;20183;-83
2023/02/10 00:56:10;;;;;;;9.90;5.40;;;-2.10;99.90;;;;;;5047546;28;21021;-85
2023/02/10 00:58:36;;;;;;;3.40;3.20;;;-2.50;99.90;;;;;;5052428;28;20220;-84
2023/02/10 01:01:03;;;;;;;3.23;3.03;;;-2.10;99.90;;;;;;5035677;28;20239;-84
2023/02/10 01:03:28;;;;;;;6.53;5.97;;;-2.50;99.90;;;;;;5053780;28;20190;-84
2023/02/10 01:05:54;;;;;;;21.97;6.27;;;-2.30;99.90;;;;;;5051988;28;20184;-84
2023/02/10 01:08:20;;;;;;;8.17;4.53;;;-2.20;99.90;;;;;;5052149;28;20195;-84
2023/02/10 01:10:46;;;;;;;3.07;2.77;;;-2.40;99.90;;;;;;5040398;28;20192;-84
2023/02/10 01:13:14;;;;;;;4.33;3.87;;;-1.90;99.90;;;;;;5051812;28;20249;-84
2023/02/10 01:15:44;;;;;;;7.03;4.50;;;-1.80;99.90;;;;;;5052130;28;20188;-84
2023/02/10 01:18:10;;;;;;;6.77;3.67;;;-1.80;99.90;;;;;;5051761;28;20210;-84
2023/02/10 01:20:39;;;;;;;6.87;3.50;;;-2.50;99.90;;;;;;5052210;28;20191;-84
2023/02/10 01:23:05;;;;;;;8.30;4.60;;;-2.50;99.90;;;;;;5043155;28;20585;-84
2023/02/10 01:25:32;;;;;;;13.30;4.50;;;-2.50;99.90;;;;;;5048488;28;20231;-84
2023/02/10 01:27:58;;;;;;;11.80;5.90;;;-2.50;99.90;;;;;;5051712;28;20269;-84
2023/02/10 01:30:24;;;;;;;11.20;4.53;;;-2.40;99.90;;;;;;5051675;28;20272;-84
2023/02/10 01:32:53;;;;;;;11.93;4.80;;;-2.40;99.90;;;;;;5035211;28;20187;-83
2023/02/10 01:35:19;;;;;;;11.77;4.63;;;-2.30;99.90;;;;;;5050382;28;20191;-84
2023/02/10 01:37:44;;;;;;;7.07;4.67;;;-2.40;99.90;;;;;;5042603;28;20266;-84
2023/02/10 01:40:10;;;;;;;6.80;5.50;;;-1.10;99.90;;;;;;5015121;28;20570;-84
2023/02/10 01:42:38;;;;;;;2.23;2.13;;;-2.40;99.90;;;;;;5015448;28;20189;-84
2023/02/10 01:45:18;;;;;;;5.93;4.20;;;-2.10;99.90;;;;;;5015289;28;20191;-84
2023/02/10 01:47:46;;;;;;;15.67;6.23;;;-2.30;99.90;;;;;;5032182;28;20719;-84
2023/02/10 01:50:14;;;;;;;4.50;4.10;;;-2.30;99.90;;;;;;5042994;28;20222;-84
2023/02/10 01:52:41;;;;;;;18.63;5.33;;;-2.30;99.90;;;;;;5051332;28;20278;-84
2023/02/10 01:55:10;;;;;;;3.87;3.57;;;-2.30;99.90;;;;;;5051389;28;20269;-84
2023/02/10 01:57:39;;;;;;;4.87;4.27;;;-2.40;99.90;;;;;;5051455;28;20573;-84
2023/02/10 02:00:06;;;;;;;6.67;3.53;;;-2.10;99.90;;;;;;5052038;28;20207;-84
2023/02/10 02:02:34;;;;;;;4.53;3.20;;;-2.40;99.90;;;;;;5041317;28;20192;-84
2023/02/10 02:05:01;;;;;;;5.67;3.50;;;-2.40;99.90;;;;;;5046896;28;20277;-84
2023/02/10 02:07:31;;;;;;;6.90;4.00;;;-2.40;99.90;;;;;;5051614;28;20284;-83
2023/02/10 02:09:58;;;;;;;3.13;2.90;;;-2.40;99.90;;;;;;5052478;28;20176;-84
2023/02/10 02:12:33;;;;;;;5.53;4.70;;;-2.30;99.90;;;;;;5051581;28;20171;-83
2023/02/10 02:15:19;;;;;;;9.03;4.43;;;-2.30;99.90;;;;;;5049676;28;20192;-84
2023/02/10 02:17:57;;;;;;;5.17;3.73;;;-2.40;99.90;;;;;;5044724;28;20244;-84
2023/02/10 02:20:49;;;;;;;7.37;4.97;;;-2.40;99.90;;;;;;5051610;28;20219;-83
2023/02/10 02:24:02;;;;;;;10.83;5.03;;;-2.40;99.90;;;;;;5052455;28;20172;-84
2023/02/10 02:27:05;;;;;;;4.90;3.53;;;-2.40;99.90;;;;;;5013353;28;20279;-84
2023/02/10 02:29:50;;;;;;;5.73;4.20;;;-2.50;99.90;;;;;;5047361;28;20305;-84
2023/02/10 02:32:25;;;;;;;2.40;2.20;;;-2.50;99.90;;;;;;5051108;28;20193;-85
2023/02/10 02:35:03;;;;;;;4.70;4.30;;;-2.50;99.90;;;;;;5052892;28;20222;-84
2023/02/10 02:37:33;;;;;;;9.83;4.37;;;-2.40;99.90;;;;;;5053580;28;20183;-84
2023/02/10 02:39:59;;;;;;;9.97;4.33;;;-2.50;99.90;;;;;;5056258;28;20208;-85
2023/02/10 02:42:32;;;;;;;3.27;3.00;;;-2.40;99.90;;;;;;5049326;28;20581;-84
2023/02/10 02:45:05;;;;;;;12.23;4.37;;;-1.80;99.90;;;;;;5034935;28;20197;-84
2023/02/10 02:48:01;;;;;;;4.80;3.97;;;-2.60;99.90;;;;;;5034805;28;20178;-83
2023/02/10 02:50:42;;;;;;;6.67;4.20;;;-2.50;99.90;;;;;;5047437;28;20713;-84
2023/02/10 02:53:29;;;;;;;3.40;3.10;;;-2.50;99.90;;;;;;5054468;28;20196;-84
2023/02/10 02:56:00;;;;;;;9.10;3.27;;;-2.50;99.90;;;;;;5054675;28;20272;-84
2023/02/10 02:58:53;;;;;;;7.73;4.30;;;-2.60;99.90;;;;;;5054039;28;20211;-83
2023/02/10 03:01:33;;;;;;;11.50;5.53;;;-2.50;99.90;;;;;;5055786;28;20608;-83
2023/02/10 03:04:00;;;;;;;9.00;3.47;;;-2.60;99.90;;;;;;5056240;28;20182;-83
2023/02/10 03:06:26;;;;;;;9.20;3.53;;;-1.70;99.90;;;;;;5037757;28;20213;-84
2023/02/10 03:08:53;;;;;;;12.17;4.80;;;-2.60;99.90;;;;;;5037989;28;20182;-83
2023/02/10 03:11:18;;;;;;;10.90;4.70;;;-2.30;99.90;;;;;;5037545;28;20193;-84
2023/02/10 03:13:44;;;;;;;4.67;4.23;;;-2.70;99.90;;;;;;5055824;28;20174;-83
2023/02/10 03:16:10;;;;;;;10.57;4.97;;;-2.40;99.90;;;;;;5054978;28;20191;-83
2023/02/10 03:18:35;;;;;;;12.87;3.63;;;-2.70;99.90;;;;;;5054236;28;20208;-84
2023/02/10 03:21:01;;;;;;;14.37;6.37;;;-1.90;99.90;;;;;;5037563;28;20190;-84
2023/02/10 03:23:27;;;;;;;6.30;3.33;;;-2.70;99.90;;;;;;5037302;28;20191;-84
2023/02/10 03:25:52;;;;;;;5.83;5.23;;;-2.70;99.90;;;;;;5020899;28;20242;-84
2023/02/10 03:28:18;;;;;;;17.83;3.93;;;-2.70;99.90;;;;;;5053679;28;20674;-84
2023/02/10 03:30:50;;;;;;;7.87;5.27;;;-1.90;99.90;;;;;;5055291;28;20268;-84
2023/02/10 03:33:16;;;;;;;7.00;3.70;;;-2.70;99.90;;;;;;5053954;28;20171;-83
2023/02/10 03:35:43;;;;;;;6.20;4.97;;;-2.80;99.90;;;;;;5055204;28;20183;-82
2023/02/10 03:38:09;;;;;;;12.57;3.73;;;-2.60;99.90;;;;;;5053469;28;20582;-85
2023/02/10 03:40:34;;;;;;;8.23;4.00;;;-2.50;99.90;;;;;;5054000;28;20182;-83
2023/02/10 03:43:00;;;;;;;6.30;5.13;;;-1.40;99.90;;;;;;5053428;28;20209;-83
2023/02/10 03:45:26;;;;;;;12.83;8.90;;;-2.70;99.90;;;;;;5053474;28;20182;-83
2023/02/10 03:47:52;;;;;;;8.70;5.33;;;-2.90;99.90;;;;;;5052819;28;20195;-83
2023/02/10 03:50:17;;;;;;;9.70;4.37;;;-3.00;99.90;;;;;;5052292;28;20294;-85
2023/02/10 03:52:43;;;;;;;9.77;4.70;;;-3.00;99.90;;;;;;5036903;28;20603;-84
2023/02/10 03:55:13;;;;;;;9.07;4.27;;;-3.00;99.90;;;;;;5053092;28;20231;-85
2023/02/10 03:57:39;;;;;;;5.73;4.53;;;-3.10;99.90;;;;;;5053889;28;20642;-84
2023/02/10 04:00:05;;;;;;;5.03;3.23;;;-3.10;99.90;;;;;;5053216;28;20211;-84
2023/02/10 04:02:31;;;;;;;12.97;6.00;;;-3.10;99.90;;;;;;5054138;28;20204;-84
2023/02/10 04:04:56;;;;;;;9.87;3.83;;;-3.00;99.90;;;;;;5020352;28;20654;-83
2023/02/10 04:07:22;;;;;;;6.67;3.77;;;-2.60;99.90;;;;;;5054306;28;20617;-83
2023/02/10 04:09:48;;;;;;;8.57;5.20;;;-2.70;99.90;;;;;;5036874;28;20664;-83
2023/02/10 04:12:13;;;;;;;9.97;4.47;;;-3.30;99.90;;;;;;5053164;28;20188;-84
2023/02/10 04:14:39;;;;;;;5.80;5.07;;;-3.30;99.90;;;;;;5036601;28;20787;-84
2023/02/10 04:17:05;;;;;;;6.97;3.47;;;-2.10;99.90;;;;;;5036581;28;20193;-84
2023/02/10 04:19:31;;;;;;;7.87;6.07;;;-3.30;99.90;;;;;;5019906;28;20219;-83
2023/02/10 04:21:56;;;;;;;5.67;3.53;;;-2.60;99.90;;;;;;5054587;28;20177;-83
2023/02/10 04:24:22;;;;;;;5.30;4.43;;;-3.30;99.90;;;;;;5053812;28;20222;-84
2023/02/10 04:26:48;;;;;;;3.73;3.43;;;-2.00;99.90;;;;;;5036654;28;20202;-84
2023/02/10 04:29:13;;;;;;;6.83;4.57;;;-3.30;99.90;;;;;;5052232;28;20189;-84
2023/02/10 04:31:39;;;;;;;6.90;4.83;;;-3.30;99.90;;;;;;5036054;28;20265;-84
2023/02/10 04:34:05;;;;;;;9.60;5.47;;;-3.30;99.90;;;;;;5036230;28;20214;-85
2023/02/10 04:36:30;;;;;;;7.93;4.60;;;-2.60;99.90;;;;;;5052411;28;20515;-85
2023/02/10 04:38:56;;;;;;;3.80;3.50;;;-2.10;99.90;;;;;;5053729;28;20205;-83
2023/02/10 04:41:22;;;;;;;7.43;4.93;;;-2.40;99.90;;;;;;5052451;28;20183;-84
2023/02/10 04:43:47;;;;;;;7.93;3.47;;;-3.30;99.90;;;;;;5052702;28;20672;-83
2023/02/10 04:46:13;;;;;;;6.00;4.63;;;-2.40;99.90;;;;;;5052301;28;20281;-84
2023/02/10 04:48:39;;;;;;;5.23;4.40;;;-3.00;99.90;;;;;;5052413;28;20196;-83
2023/02/10 04:51:10;;;;;;;6.77;5.17;;;-3.00;99.90;;;;;;5035404;28;20184;-84
2023/02/10 04:53:36;;;;;;;8.13;4.73;;;-3.60;99.90;;;;;;5047630;28;20178;-84
2023/02/10 04:56:03;;;;;;;8.53;4.97;;;-1.40;99.90;;;;;;5032449;28;20180;-84
2023/02/10 04:58:30;;;;;;;7.90;5.30;;;-3.60;99.90;;;;;;5041316;28;20214;-85
2023/02/10 05:00:56;;;;;;;6.90;4.53;;;-3.10;99.90;;;;;;5044260;28;20188;-84
2023/02/10 05:03:22;;;;;;;7.30;4.53;;;-2.60;99.90;;;;;;5037249;28;20185;-85
2023/02/10 05:05:48;;;;;;;10.43;4.20;;;-2.20;99.90;;;;;;5038013;28;20183;-85
2023/02/10 05:08:14;;;;;;;9.27;6.57;;;-2.70;99.90;;;;;;5026576;28;20191;-85
2023/02/10 05:10:39;;;;;;;10.30;5.60;;;-3.70;99.90;;;;;;5005864;28;20235;-85
2023/02/10 05:13:05;;;;;;;8.53;4.30;;;-3.70;99.90;;;;;;5034508;28;20547;-85
2023/02/10 05:15:31;;;;;;;5.27;4.77;;;-1.90;99.90;;;;;;5032318;28;20644;-85
2023/02/10 05:17:56;;;;;;;6.57;4.50;;;-3.30;99.90;;;;;;5039147;28;20174;-85
2023/02/10 05:20:22;;;;;;;8.30;5.30;;;-3.10;99.90;;;;;;5032799;28;20334;-85
2023/02/10 05:22:48;;;;;;;14.17;7.80;;;-3.50;99.90;;;;;;5032932;28;20271;-84
2023/02/10 05:25:14;;;;;;;14.70;5.80;;;;;;;;;;5029458;28;20233;-85
2023/02/10 05:27:39;;;;;;;7.97;5.30;;;-3.80;99.90;;;;;;5030681;28;20172;-85
2023/02/10 05:30:06;;;;;;;2.77;2.53;;;-3.60;99.90;;;;;;5028113;28;20191;-85
2023/02/10 05:32:33;;;;;;;5.43;5.00;;;-3.80;99.90;;;;;;5036472;28;20186;-85
2023/02/10 05:34:58;;;;;;;8.10;4.43;;;-3.80;99.90;;;;;;5032979;28;20184;-86
2023/02/10 05:37:24;;;;;;;3.87;3.23;;;-3.80;99.90;;;;;;5034090;28;20267;-86
2023/02/10 05:39:50;;;;;;;3.53;2.47;;;-3.90;99.90;;;;;;5048110;28;20307;-86
2023/02/10 05:42:16;;;;;;;6.83;3.77;;;;;;;;;;5030769;28;20196;-86
2023/02/10 05:44:41;;;;;;;5.30;4.00;;;-4.00;99.90;;;;;;5030503;28;20281;-85
2023/02/10 05:47:07;;;;;;;6.27;3.57;;;;;;;;;;5032134;28;20215;-86
2023/02/10 05:49:33;;;;;;;4.07;3.67;;;;;;;;;;5025262;28;20221;-86
2023/02/10 05:51:59;;;;;;;10.27;7.70;;;;;;;;;;5039511;28;20283;-85
2023/02/10 05:54:25;;;;;;;7.93;7.10;;;;;;;;;;5039774;28;20195;-85
2023/02/10 05:56:52;;;;;;;5.93;4.17;;;;;;;;;;5039390;28;20208;-85
2023/02/10 05:59:17;;;;;;;9.03;3.97;;;-4.00;99.90;;;;;;5038983;28;20273;-85
2023/02/10 06:01:46;;;;;;;4.10;3.80;;;-2.00;99.90;;;;;;5041773;28;20169;-85
2023/02/10 06:04:12;;;;;;;10.50;4.30;;;-4.00;99.90;;;;;;5042232;28;20194;-86
2023/02/10 06:06:37;;;;;;;4.33;3.73;;;-4.00;99.90;;;;;;5040351;28;20187;-86
2023/02/10 06:09:04;;;;;;;5.83;5.27;;;;;;;;;;5044165;28;20606;-85
2023/02/10 06:11:30;;;;;;;9.83;3.80;;;;;;;;;;5032421;28;20388;-85
2023/02/10 06:13:56;;;;;;;8.47;5.93;;;-3.90;99.90;;;;;;5038002;28;20251;-85
2023/02/10 06:16:21;;;;;;;12.33;4.53;;;-3.40;99.90;;;;;;5044052;28;20633;-85
2023/02/10 06:18:47;;;;;;;6.37;4.50;;;;;;;;;;5043529;28;20216;-85
2023/02/10 06:21:15;;;;;;;10.27;4.83;;;-3.90;99.90;;;;;;5046303;28;20273;-85
2023/02/10 06:23:40;;;;;;;11.53;5.37;;;-2.90;99.90;;;;;;5044022;28;20308;-83
2023/02/10 06:26:06;;;;;;;9.40;3.47;;;;;;;;;;5045954;28;20207;-84
2023/02/10 06:28:33;;;;;;;6.90;5.17;;;;;;;;;;5042748;28;20197;-84
2023/02/10 06:30:58;;;;;;;6.37;3.57;;;-3.80;99.90;;;;;;5036102;28;20188;-84
2023/02/10 06:33:24;;;;;;;12.13;3.57;;;-3.50;99.90;;;;;;5042914;28;20653;-85
2023/02/10 06:35:50;;;;;;;4.97;4.33;;;-3.30;99.90;;;;;;5041756;28;20670;-84
2023/02/10 06:38:16;;;;;;;11.13;4.10;;;-2.30;99.90;;;;;;5031296;28;20192;-85
2023/02/10 06:40:42;;;;;;;3.23;2.73;;;-3.60;99.90;;;;;;5029659;28;20190;-85
2023/02/10 06:43:08;;;;;;;6.63;4.07;;;;;;;;;;5051188;28;20182;-85
2023/02/10 06:45:34;;;;;;;4.27;3.93;;;;;;;;;;5046309;28;20731;-86
2023/02/10 06:48:01;;;;;;;1.97;1.87;;;-3.50;99.90;;;;;;5035139;28;20194;-85
2023/02/10 06:50:28;;;;;;;9.27;4.37;;;;;;;;;;5050958;28;20199;-85
2023/02/10 06:52:53;;;;;;;4.67;4.27;;;-3.40;99.90;;;;;;5045106;28;20245;-85
2023/02/10 06:55:19;;;;;;;5.30;3.80;;;-3.40;99.90;;;;;;5044045;28;20194;-85
2023/02/10 06:57:44;;;;;;;5.70;5.23;;;-3.30;99.90;;;;;;5035313;28;20244;-85
2023/02/10 07:00:13;;;;;;;4.07;3.70;;;-3.00;99.90;;;;;;5042217;28;20218;-85
2023/02/10 07:02:39;;;;;;;7.70;4.17;;;-3.30;99.90;;;;;;5047995;28;20187;-84
2023/02/10 07:05:07;;;;;;;5.13;3.27;;;-3.20;99.90;;;;;;5041553;28;20184;-86
2023/02/10 07:07:33;;;;;;;10.37;5.07;;;;;;;;;;5040239;28;20184;-85
2023/02/10 07:09:59;;;;;;;3.00;2.80;;;-3.00;99.90;;;;;;5045458;28;20217;-85
2023/02/10 07:12:25;;;;;;;23.27;5.30;;;;;;;;;;5015817;28;20190;-85
2023/02/10 07:14:51;;;;;;;12.17;4.70;;;-2.90;99.90;;;;;;5039474;28;20189;-88
2023/02/10 07:17:18;;;;;;;5.50;3.50;;;;;;;;;;5030905;28;20188;-86
2023/02/10 07:19:43;;;;;;;11.50;4.23;;;-2.80;99.90;;;;;;5034995;28;20223;-85
2023/02/10 07:22:09;;;;;;;5.67;4.10;;;;;;;;;;5045389;28;20664;-85
2023/02/10 07:24:36;;;;;;;5.73;4.37;;;-2.80;99.90;;;;;;5044641;28;20231;-85
2023/02/10 07:27:02;;;;;;;11.13;5.47;;;;;;;;;;5039615;28;20186;-85
2023/02/10 07:29:28;;;;;;;11.50;5.50;;;-2.80;99.90;;;;;;5037459;28;20186;-86
2023/02/10 07:31:54;;;;;;;9.70;5.77;;;-2.70;99.90;;;;;;5029530;28;20281;-85
2023/02/10 07:34:26;;;;;;;5.60;3.97;;;-2.60;99.90;;;;;;5047890;28;20190;-86
2023/02/10 07:36:55;;;;;;;6.17;3.93;;;;;;;;;;5048573;28;20175;-85
2023/02/10 07:39:22;;;;;;;8.40;4.27;;;-2.50;99.90;;;;;;5038819;28;20307;-85
2023/02/10 07:41:49;;;;;;;11.53;5.67;;;-2.50;99.90;;;;;;5036898;28;20183;-87
2023/02/10 07:44:15;;;;;;;4.37;3.27;;;;;;;;;;5051536;28;20178;-86
2023/02/10 07:46:42;;;;;;;7.87;4.13;;;;;;;;;;5053752;28;20190;-87
2023/02/10 07:49:08;;;;;;;10.10;4.63;;;;;;;;;;5036093;28;20262;-87
2023/02/10 07:51:34;;;;;;;6.03;3.33;;;;;;;;;;5043643;28;20189;-87
2023/02/10 07:54:00;;;;;;;5.07;4.30;;;;;;;;;;5044086;28;20172;-87
2023/02/10 07:56:26;;;;;;;4.97;3.73;;;;;;;;;;5043144;28;20243;-87
2023/02/10 07:58:52;;;;;;;3.47;2.47;;;;;;;;;;5041711;28;20208;-86
2023/02/10 08:01:18;;;;;;;14.57;5.50;;;;;;;;;;5047473;28;20191;-86
2023/02/10 08:03:44;;;;;;;8.43;4.77;;;;;;;;;;5058761;28;20289;-87
2023/02/10 08:06:10;;;;;;;8.30;5.93;;;;;;;;;;5061982;28;20213;-87
2023/02/10 08:08:36;;;;;;;8.30;4.70;;;;;;;;;;5051460;28;20195;-87
2023/02/10 08:11:06;;;;;;;3.17;2.90;;;-1.70;99.90;;;;;;5031263;28;20187;-86
2023/02/10 08:13:33;;;;;;;6.73;5.73;;;-1.70;99.90;;;;;;5042708;28;20188;-86
2023/02/10 08:15:59;;;;;;;10.60;5.03;;;;;;;;;;5057838;28;20210;-86
2023/02/10 08:18:25;;;;;;;6.83;3.07;;;;;;;;;;5036796;28;20552;-86
2023/02/10 08:20:51;;;;;;;9.83;4.10;;;;;;;;;;5052653;28;20195;-86
2023/02/10 08:23:17;;;;;;;6.03;3.63;;;-1.20;99.90;;;;;;5052273;28;20184;-86
2023/02/10 08:25:43;;;;;;;11.33;4.33;;;;;;;;;;5051728;28;20590;-86
2023/02/10 08:28:09;;;;;;;8.47;4.63;;;;;;;;;;5040172;28;20213;-86
2023/02/10 08:30:36;;;;;;;14.90;5.87;;;;;;;;;;5039840;28;20249;-86
2023/02/10 08:33:02;;;;;;;9.93;6.13;;;;;;;;;;5042129;28;20207;-85
2023/02/10 08:35:28;;;;;;;10.70;5.33;;;;;;;;;;5022098;28;20189;-86
2023/02/10 08:37:54;;;;;;;14.37;7.13;;;;;;;;;;5035584;28;20184;-86
2023/02/10 08:40:20;;;;;;;15.47;6.73;;;;;;;;;;5033874;28;20295;-86
2023/02/10 08:42:47;;;;;;;4.10;3.60;;;-0.80;99.90;;;;;;5032354;28;20272;-87
2023/02/10 08:45:13;;;;;;;10.67;5.30;;;;;;;;;;5018091;28;20269;-86
2023/02/10 08:47:39;;;;;;;10.70;4.43;;;;;;;;;;5031803;28;20192;-86
2023/02/10 08:50:05;;;;;;;6.03;4.33;;;-0.80;99.90;;;;;;5048359;28;20182;-85
2023/02/10 08:52:31;;;;;;;12.00;5.13;;;;;;;;;;5052001;28;20236;-87
2023/02/10 08:54:59;;;;;;;9.07;5.60;;;;;;;;;;5035291;28;20655;-87
2023/02/10 08:57:25;;;;;;;5.37;3.60;;;;;;;;;;5026199;28;20195;-88
2023/02/10 08:59:51;;;;;;;11.23;4.57;;;;;;;;;;5040526;28;20230;-87
2023/02/10 09:02:17;;;;;;;6.27;5.03;;;;;;;;;;5034688;28;20184;-87
2023/02/10 09:04:43;;;;;;;8.87;4.50;;;;;;;;;;5051515;28;20521;-88
2023/02/10 09:07:10;;;;;;;6.23;4.23;;;;;;;;;;5042420;28;20192;-87
2023/02/10 09:09:40;;;;;;;11.47;4.63;;;-0.50;99.90;;;;;;5036742;28;20187;-87
2023/02/10 09:12:09;;;;;;;4.17;2.73;;;;;;;;;;5053609;28;20184;-87
2023/02/10 09:14:36;;;;;;;5.60;4.13;;;;;;;;;;5052307;28;20179;-86
2023/02/10 09:17:03;;;;;;;6.30;3.57;;;;;;;;;;5052961;28;20255;-88
2023/02/10 09:19:29;;;;;;;5.53;3.37;;;;;;;;;;5051142;28;20210;-87
2023/02/10 09:21:58;;;;;;;5.33;4.60;;;;;;;;;;5051712;28;20214;-87
2023/02/10 09:24:24;;;;;;;6.30;4.50;;;;;;;;;;5052024;28;20235;-87
2023/02/10 09:26:50;;;;;;;6.37;4.60;;;;;;;;;;5045475;28;20192;-87
2023/02/10 09:29:16;;;;;;;4.80;2.60;;;;;;;;;;5052070;28;20186;-87
2023/02/10 09:31:42;;;;;;;3.37;3.07;;;;;;;;;;5051607;28;20277;-87
2023/02/10 09:34:09;;;;;;;4.27;3.67;;;;;;;;;;5050954;28;20211;-88
2023/02/10 09:36:35;;;;;;;4.90;3.63;;;;;;;;;;5055798;28;20184;-87
2023/02/10 09:39:01;;;;;;;3.90;3.57;;;;;;;;;;5059670;28;20211;-89
2023/02/10 09:41:32;;;;;;;6.33;3.43;;;-0.30;99.90;;;;;;5059670;28;20279;-89
2023/02/10 09:44:10;;;;;;;8.40;5.57;;;-0.20;99.90;;;;;;5043622;28;20242;-88
2023/02/10 09:47:01;;;;;;;5.30;3.50;;;0.30;99.90;;;;;;5030338;28;20184;-87
2023/02/10 09:49:58;;;;;;;8.97;5.30;;;0.00;99.90;;;;;;5031981;28;20188;-87
2023/02/10 09:52:42;;;;;;;6.20;5.07;;;0.10;99.90;;;;;;5032975;28;20319;-87
2023/02/10 09:55:36;;;;;;;4.07;3.07;;;0.10;99.90;;;;;;5036197;28;20215;-87
2023/02/10 09:58:19;;;;;;;8.53;4.10;;;0.00;99.90;;;;;;5031405;28;20181;-87
2023/02/10 10:00:48;;;;;;;7.07;3.93;;;0.10;99.90;;;;;;5047508;28;20196;-87
2023/02/10 10:03:17;;;;;;;4.77;3.23;;;0.10;99.90;;;;;;5032296;28;20184;-87
2023/02/10 10:05:58;;;;;;;12.33;5.73;;;0.10;99.90;;;;;;5051505;28;20183;-85
2023/02/10 10:08:53;;;;;;;10.83;4.17;;;0.20;99.90;;;;;;5049124;28;20268;-88
2023/02/10 10:11:19;;;;;;;4.60;3.33;;;;;;;;;;5032634;28;20169;-87
2023/02/10 10:13:45;;;;;;;5.23;2.20;;;;;;;;;;5032659;28;20279;-87
2023/02/10 10:16:40;;;;;;;3.97;3.63;;;0.30;99.90;;;;;;5015454;28;20188;-85
2023/02/10 10:19:27;;;;;;;4.93;3.90;;;0.30;99.90;;;;;;5032365;28;20215;-87
2023/02/10 10:22:22;;;;;;;14.60;5.00;;;0.30;99.90;;;;;;5035628;28;20192;-88
2023/02/10 10:25:20;;;;;;;3.83;3.47;;;0.50;99.90;;;;;;5050248;28;20560;-87
2023/02/10 10:28:23;;;;;;;5.37;4.47;;;0.00;99.90;;;;;;5036473;28;20181;-88
2023/02/10 10:30:56;;;;;;;2.53;2.20;;;1.70;99.90;;;;;;5039409;28;20217;-88
2023/02/10 10:33:40;;;;;;;7.43;4.60;;;0.20;99.90;;;;;;5042308;28;20192;-88
2023/02/10 10:36:15;;;;;;;12.40;6.77;;;0.00;99.90;;;;;;5031374;28;20172;-87
2023/02/10 10:38:48;;;;;;;8.90;5.00;;;0.30;99.90;;;;;;5015779;28;20227;-87
2023/02/10 10:41:15;;;;;;;9.27;4.50;;;0.30;99.90;;;;;;5032465;28;20161;-87
2023/02/10 10:43:55;;;;;;;7.63;4.87;;;0.10;99.90;;;;;;4999203;28;20189;-87
2023/02/10 10:46:23;;;;;;;11.53;5.07;;;0.40;99.90;;;;;;5055999;28;20339;-87
2023/02/10 10:48:49;;;;;;;9.13;4.57;;;;;;;;;;5059138;28;20195;-87
2023/02/10 10:51:16;;;;;;;7.47;3.63;;;0.40;99.90;;;;;;5052316;28;20214;-86
2023/02/10 10:53:46;;;;;;;9.77;4.63;;;0.30;99.90;;;;;;5051349;28;20191;-87
2023/02/10 10:56:27;;;;;;;7.17;3.80;;;0.30;99.90;;;;;;5051692;28;20294;-87
2023/02/10 10:58:53;;;;;;;4.80;3.47;;;;;;;;;;5054701;28;20207;-87
2023/02/10 11:01:35;;;;;;;8.23;5.50;;;0.40;99.90;;;;;;5055830;28;20224;-87
2023/02/10 11:04:24;;;;;;;9.10;5.23;;;0.50;99.90;;;;;;5054840;28;20270;-86
2023/02/10 11:06:55;;;;;;;12.43;4.73;;;0.40;99.90;;;;;;5057983;28;20210;-87
2023/02/10 11:09:39;;;;;;;23.77;5.63;;;0.50;99.90;;;;;;5056434;28;20202;-88
2023/02/10 11:12:16;;;;;;;3.73;3.40;;;0.60;99.90;;;;;;5056440;28;20184;-87
2023/02/10 11:14:45;;;;;;;10.33;5.90;;;0.60;99.90;;;;;;5055184;28;20188;-87
2023/02/10 11:17:36;;;;;;;8.13;5.07;;;0.60;99.90;;;;;;5054407;28;20722;-88
2023/02/10 11:20:02;;;;;;;5.20;4.27;;;;;;;;;;5035572;28;20217;-85
2023/02/10 11:22:28;;;;;;;6.40;3.80;;;;;;;;;;5043541;28;20579;-86
2023/02/10 11:25:23;;;;;;;8.37;4.63;;;0.60;99.90;;;;;;5037800;28;20236;-89
2023/02/10 11:27:51;;;;;;;8.77;5.07;;;0.50;99.90;;;;;;5048027;28;20668;-87
2023/02/10 11:30:28;;;;;;;10.67;4.93;;;0.40;99.90;;;;;;5035861;28;20199;-84
2023/02/10 11:32:55;;;;;;;16.87;5.73;;;;;;;;;;5051405;28;20188;-86
2023/02/10 11:35:21;;;;;;;12.40;5.37;;;;;;;;;;5024486;28;20661;-87
2023/02/10 11:37:53;;;;;;;7.10;4.67;;;0.70;99.90;;;;;;5046924;28;20235;-87
2023/02/10 11:40:23;;;;;;;10.43;5.63;;;0.80;99.90;;;;;;5053952;28;20206;-87
2023/02/10 11:42:51;;;;;;;11.40;5.67;;;0.80;99.90;;;;;;5054854;28;20237;-86
2023/02/10 11:45:21;;;;;;;5.97;3.37;;;0.80;99.90;;;;;;5049814;28;20184;-87
2023/02/10 11:47:47;;;;;;;6.13;4.33;;;;;;;;;;5054900;28;20194;-87
2023/02/10 11:50:28;;;;;;;6.57;4.47;;;1.10;99.90;;;;;;5053615;28;20192;-86
2023/02/10 11:52:54;;;;;;;12.97;5.63;;;;;;;;;;5041379;28;20217;-86
2023/02/10 11:55:25;;;;;;;13.13;4.63;;;1.10;99.90;;;;;;5037687;28;20188;-86
2023/02/10 12:00:44;;;;;;;9.97;3.80;;;2.00;99.90;;;;;;5052395;28;20245;-86
2023/02/10 12:03:35;;;;;;;12.27;5.13;;;1.20;99.90;;;;;;5044204;28;21579;-87
2023/02/10 12:06:27;;;;;;;13.17;4.73;;;1.30;99.90;;;;;;5045718;28;20184;-87
2023/02/10 12:09:28;;;;;;;9.57;5.13;;;1.20;99.90;;;;;;5045600;28;20274;-86
2023/02/10 12:12:21;;;;;;;11.53;4.87;;;1.30;99.90;;;;;;5033296;28;20648;-86
2023/02/10 12:14:52;;;;;;;7.63;5.03;;;0.90;99.90;;;;;;5043563;28;20634;-86
2023/02/10 12:17:53;;;;;;;18.10;5.97;;;0.90;99.90;;;;;;5043158;28;20188;-86
2023/02/10 12:20:42;;;;;;;9.60;5.67;;;1.00;99.90;;;;;;5047957;28;20582;-86
2023/02/10 12:23:33;;;;;;;9.00;5.67;;;1.30;99.90;;;;;;5046862;28;20654;-86
2023/02/10 12:25:59;;;;;;;9.27;6.43;;;;;;;;;;5042094;28;20234;-86
2023/02/10 12:28:46;;;;;;;12.80;7.07;;;1.30;99.90;;;;;;5033960;28;20184;-86
2023/02/10 12:31:47;;;;;;;10.17;6.53;;;1.60;99.90;;;;;;5034165;28;20173;-86
2023/02/10 12:34:53;;;;;;;5.60;4.13;;;1.10;99.90;;;;;;4956686;28;20194;-85
2023/02/10 12:37:53;;;;;;;17.17;5.87;;;1.40;99.90;;;;;;5040121;28;20270;-87
2023/02/10 12:40:19;;;;;;;5.87;4.80;;;;;;;;;;5052707;28;20285;-86
2023/02/10 12:43:02;;;;;;;9.27;4.53;;;1.50;99.90;;;;;;5053072;28;20629;-85
2023/02/10 12:45:40;;;;;;;11.30;4.97;;;1.40;99.90;;;;;;5055038;28;20172;-87
2023/02/10 12:48:42;;;;;;;6.77;4.03;;;1.50;99.90;;;;;;5053861;28;20698;-87
2023/02/10 12:51:28;;;;;;;7.23;3.73;;;0.90;99.90;;;;;;5053223;28;20574;-88
2023/02/10 12:54:01;;;;;;;16.20;4.80;;;1.40;99.90;;;;;;5052962;28;20699;-87
2023/02/10 12:56:33;;;;;;;13.17;5.43;;;1.40;99.90;;;;;;5053306;28;20219;-86
2023/02/10 12:59:10;;;;;;;12.00;5.57;;;1.30;99.90;;;;;;5054644;28;20203;-87
2023/02/10 13:01:42;;;;;;;9.43;4.77;;;1.40;99.90;;;;;;5046342;28;20181;-88
2023/02/10 13:04:33;;;;;;;9.13;5.10;;;1.70;99.90;;;;;;5042602;28;20186;-87
2023/02/10 13:06:59;;;;;;;11.37;5.07;;;;;;;;;;5042234;28;20693;-85
2023/02/10 13:09:52;;;;;;;14.97;5.57;;;1.30;99.90;;;;;;5041498;28;20276;-86
2023/02/10 13:12:38;;;;;;;8.20;3.73;;;1.30;99.90;;;;;;5044360;28;20190;-87
2023/02/10 13:15:35;;;;;;;8.17;4.80;;;1.50;99.90;;;;;;5044386;28;20206;-87
2023/02/10 13:18:01;;;;;;;5.43;4.23;;;;;;;;;;5038367;28;20219;-87
2023/02/10 13:20:40;;;;;;;15.17;6.63;;;1.50;99.90;;;;;;5042555;28;20881;-87
2023/02/10 13:23:24;;;;;;;6.13;4.43;;;1.60;99.90;;;;;;5039860;28;20251;-88
2023/02/10 13:26:21;;;;;;;8.20;4.00;;;1.20;99.90;;;;;;5039552;28;20224;-87
2023/02/10 13:29:09;;;;;;;15.73;5.77;;;1.20;99.90;;;;;;5041070;28;20173;-87
2023/02/10 13:31:41;;;;;;;12.10;3.77;;;1.50;99.90;;;;;;5043352;28;20198;-87